VVNBVVPB

Guest
Details From VVNB - Hanoi Noibai Intl
To VVPB - PHUBAI
Flight Number -
Tags decoded
Created
Modified
Stats Distance 315 nm / 583 km
Max Altitude 0 ft / 0 m
Waypoints 5
Social Downloads 0
Likes 0
Share VATSIM

Download

Looking for another format? Having issues loading an existing format? Contact us
Advertisement - Login to hide

Notes

Requested: VVNB VITIA VITRA NAH HAMI W10 PB VVPB Unmatched points: VITIA HAMI W10

Route

VVNB VITRA NAH PB VVPB

ID Type Via Altitude Latitude Longitude Leg Dist Tot Dist Heading (true) Name
O VVNB APT - 0 ft / 0 m 21.21974˚ 105.80377˚ - 0 nm - Hanoi Noibai Intl
VITRA FIX - 0 ft / 0 m 20.58817˚ 106.08958˚ 41 nm 41 nm 157° / 157° -
NAH VOR - 0 ft / 0 m 20.38722˚ 106.11778˚ 12 nm 53 nm 173° / 173° NAMHA VOR-DME
PB NDB - 0 ft / 0 m 16.39583˚ 107.77194˚ 257 nm 310 nm 158° / 159° PHUBAI NDB
O VVPB APT - 0 ft / 0 m 16.40150˚ 107.70261˚ 4 nm 314 nm 275° / 275° PHUBAI

Altitude Profile

Advertisement - Login to hide

Weather


0- 5 10 15 20 25 30 35+ Temperature / ° C

Clouds and Precipitation
Forecast for 2017-12-18 00:00 UTC. Updated an hour ago

Ground ~20,000 ft ~40,000 ft Winds

VVNB

Details ICAO VVNB (HAN)
Name Hanoi Noibai Intl
Region Vietnam
Timezone Asia/Ho_Chi_Minh (UTC+7.0)
Stats Elevation 39 ft / 12 m (AMSL)
Location 21.219739° 105.803774°
Runways 2
Magnetic Variation 1.479° W

METAR

VVNB 172200Z 04003KT CAVOK 11/04 Q1028 NOSIG

Decode

TAF

TAF VVNB 171700Z 1718/1818 05005KT 8000 NSC

Decode

Departure Runways

ID Width Length Bearing (true) Bearing (mag) Surface Threshold Offset Overrun Length
11L 148 ft / 45 m 12,454 ft / 3,796 m 107.24° 108.72° Concrete 0 ft / 0 m 0 ft / 0 m
11R 148 ft / 45 m 12,456 ft / 3,797 m 107.22° 108.70° Concrete 0 ft / 0 m 325 ft / 99 m
29L 148 ft / 45 m 12,456 ft / 3,797 m 287.23° 288.71° Concrete 0 ft / 0 m 325 ft / 99 m
29R 148 ft / 45 m 12,454 ft / 3,796 m 287.25° 288.73° Concrete 0 ft / 0 m 868 ft / 265 m

VVPB

Details ICAO VVPB
Name PHUBAI
Region Vietnam
Timezone Asia/Ho_Chi_Minh (UTC+7.0)
Stats Elevation 48 ft / 15 m (AMSL)
Location 16.401501° 107.702614°
Runways 1
Magnetic Variation 1.169° W

METAR

VVPB 172200Z 26006KT 7000 SCT020 BKN040 16/15 Q1023 NOSIG

Decode

TAF

TAF VVPB 171700Z 1718/1818 29006KT 5000 BR SCT013 BKN040 TEMPO 1718/1801 2500 RA BR BECMG 1801/1802 7000 NSW TEMPO 1808/1813 3500 RA BR

Decode

Destination Runways

ID Width Length Bearing (true) Bearing (mag) Surface Threshold Offset Overrun Length
09 130 ft / 40 m 8,847 ft / 2,697 m 93.17° 94.34° Asphalt 0 ft / 0 m 80 ft / 24 m
27 130 ft / 40 m 8,847 ft / 2,697 m 273.17° 274.34° Asphalt 0 ft / 0 m 200 ft / 61 m

Approach Navaids

Runway Type Ident Frequency Range Bearing (true) Bearing (mag) Slope Elevation
27 Localiser PBA 109.50 MHz 18 nm / 33 km 271.34° 272.51° - 48 ft / 15 m (AMSL)
27 Glidescope PBA 109.50 MHz 10 nm / 19 km 273.17° 274.34° 3.00° 48 ft / 15 m (AMSL)
27 DME PBA 109.50 MHz 18 nm / 33 km - - - 48 ft / 15 m (AMSL)

Popular Alternatives